createdAt,value
2022-08-23T00:00:46.227Z,20.94
2022-08-23T00:01:44.133Z,20.75
2022-08-23T00:02:44.196Z,20.79
2022-08-23T00:03:44.108Z,20.87
2022-08-23T00:04:56.905Z,20.71
2022-08-23T00:05:45.065Z,20.83
2022-08-23T00:06:44.046Z,20.63
2022-08-23T00:07:44.137Z,20.73
2022-08-23T00:08:44.073Z,20.68
2022-08-23T00:09:44.031Z,20.61
2022-08-23T00:10:43.988Z,20.68
2022-08-23T00:11:43.975Z,20.69
2022-08-23T00:12:43.950Z,20.69
2022-08-23T00:13:47.324Z,20.64
2022-08-23T00:14:45.371Z,20.68
2022-08-23T00:15:43.911Z,20.69
2022-08-23T00:16:43.872Z,20.56
2022-08-23T00:17:43.875Z,20.57
2022-08-23T00:18:47.643Z,20.54
2022-08-23T00:19:44.852Z,20.58
2022-08-23T00:21:10.192Z,20.63
2022-08-23T00:21:43.829Z,20.68
2022-08-23T00:22:43.777Z,20.66
2022-08-23T00:23:43.868Z,20.53
2022-08-23T00:24:43.783Z,20.61
2022-08-23T00:25:43.745Z,20.58
2022-08-23T00:26:43.718Z,20.54
2022-08-23T00:27:43.692Z,20.53
2022-08-23T00:28:43.679Z,20.57
2022-08-23T00:29:43.709Z,20.48
2022-08-23T00:30:43.641Z,20.54
2022-08-23T00:31:43.624Z,20.53
2022-08-23T00:32:43.605Z,20.42
2022-08-23T00:33:43.593Z,20.51
2022-08-23T00:34:43.608Z,20.44
2022-08-23T00:35:43.556Z,20.48
2022-08-23T00:36:43.529Z,20.50
2022-08-23T00:37:43.523Z,20.42
2022-08-23T00:38:44.505Z,20.42
2022-08-23T00:39:43.574Z,20.42
2022-08-23T00:40:43.481Z,20.41
2022-08-23T00:41:43.482Z,20.34
2022-08-23T00:42:43.435Z,20.40
2022-08-23T00:43:43.420Z,20.31
2022-08-23T00:44:43.425Z,20.40
2022-08-23T00:45:43.398Z,20.33
2022-08-23T00:46:43.366Z,20.33
2022-08-23T00:47:44.861Z,20.30
2022-08-23T00:48:43.327Z,20.37
2022-08-23T00:49:43.342Z,20.35
2022-08-23T00:50:43.298Z,20.35
2022-08-23T00:51:48.769Z,20.44
2022-08-23T00:52:44.259Z,20.44
2022-08-23T00:53:43.240Z,20.38
2022-08-23T00:54:43.263Z,20.44
2022-08-23T00:55:43.295Z,20.48
2022-08-23T00:56:43.190Z,20.38
2022-08-23T00:57:43.168Z,20.27
2022-08-23T00:58:43.171Z,20.34
2022-08-23T00:59:43.184Z,20.37
2022-08-23T01:00:43.126Z,20.40
2022-08-23T01:01:43.167Z,20.30
2022-08-23T01:02:43.101Z,20.40
2022-08-23T01:03:43.090Z,20.34
2022-08-23T01:04:43.085Z,20.35
2022-08-23T01:05:43.044Z,20.35
2022-08-23T01:06:43.024Z,20.40
2022-08-23T01:07:43.048Z,20.34
2022-08-23T01:08:42.986Z,20.37
2022-08-23T01:09:42.996Z,20.34
2022-08-23T01:10:42.949Z,20.37
2022-08-23T01:11:42.932Z,20.50
2022-08-23T01:12:42.914Z,20.34
2022-08-23T01:13:42.893Z,20.41
2022-08-23T01:14:42.951Z,20.44
2022-08-23T01:15:42.869Z,20.31
2022-08-23T01:16:42.847Z,20.37
2022-08-23T01:17:42.826Z,20.42
2022-08-23T01:18:42.828Z,20.35
2022-08-23T01:19:42.816Z,20.27
2022-08-23T01:20:42.764Z,20.33
2022-08-23T01:21:42.753Z,20.42
2022-08-23T01:22:42.739Z,20.41
2022-08-23T01:23:42.776Z,20.30
2022-08-23T01:25:06.460Z,20.26
2022-08-23T01:25:43.738Z,20.19
2022-08-23T01:26:42.681Z,20.12
2022-08-23T01:27:42.655Z,20.17
2022-08-23T01:28:45.746Z,20.20
2022-08-23T01:29:42.672Z,20.16
2022-08-23T01:30:42.605Z,20.20
2022-08-23T01:31:42.581Z,20.19
2022-08-23T01:32:42.567Z,20.17
2022-08-23T01:33:42.575Z,20.26
2022-08-23T01:34:45.378Z,20.10
2022-08-23T01:35:43.522Z,20.25
2022-08-23T01:36:42.499Z,20.12
2022-08-23T01:37:42.491Z,20.16
2022-08-23T01:38:42.471Z,20.16
2022-08-23T01:39:42.535Z,20.16
2022-08-23T01:40:42.433Z,20.16
2022-08-23T01:41:42.422Z,20.30
2022-08-23T01:42:42.410Z,20.30
2022-08-23T01:43:42.438Z,20.23
2022-08-23T01:44:42.395Z,20.25
2022-08-23T01:45:42.354Z,20.17
2022-08-23T01:46:42.328Z,20.17
2022-08-23T01:47:42.319Z,20.17
2022-08-23T01:48:42.310Z,20.17
2022-08-23T01:49:42.319Z,20.10
2022-08-23T01:50:42.256Z,20.19
2022-08-23T01:51:42.280Z,20.16
2022-08-23T01:52:46.611Z,20.08
2022-08-23T01:53:43.313Z,20.17
2022-08-23T01:54:42.217Z,20.26
2022-08-23T01:55:42.175Z,20.22
2022-08-23T01:56:42.161Z,20.17
2022-08-23T01:57:42.138Z,20.17
2022-08-23T01:58:42.165Z,20.10
2022-08-23T01:59:42.158Z,20.16
2022-08-23T02:00:42.089Z,20.19
2022-08-23T02:01:42.156Z,20.19
2022-08-23T02:02:42.111Z,20.15
2022-08-23T02:03:42.059Z,20.13
2022-08-23T02:04:42.046Z,20.08
2022-08-23T02:05:42.062Z,20.05
2022-08-23T02:06:41.984Z,20.08
2022-08-23T02:07:41.968Z,20.12
2022-08-23T02:08:41.948Z,20.02
2022-08-23T02:09:41.965Z,20.16
2022-08-23T02:10:41.911Z,20.10
2022-08-23T02:11:41.895Z,20.01
2022-08-23T02:12:41.874Z,20.07
2022-08-23T02:13:41.901Z,19.97
2022-08-23T02:14:41.885Z,20.12
2022-08-23T02:15:41.840Z,20.10
2022-08-23T02:16:41.808Z,20.00
2022-08-23T02:17:42.817Z,20.02
2022-08-23T02:18:41.773Z,20.05
2022-08-23T02:19:41.789Z,20.04
2022-08-23T02:20:41.751Z,20.02
2022-08-23T02:21:41.782Z,19.98
2022-08-23T02:22:41.710Z,19.87
2022-08-23T02:23:41.759Z,19.94
2022-08-23T02:24:41.775Z,19.92
2022-08-23T02:25:41.668Z,19.97
2022-08-23T02:26:41.642Z,19.90
2022-08-23T02:27:43.981Z,19.85
2022-08-23T02:28:41.612Z,19.90
2022-08-23T02:29:41.638Z,19.89
2022-08-23T02:30:41.595Z,19.95
2022-08-23T02:31:41.560Z,19.98
2022-08-23T02:32:41.551Z,19.94
2022-08-23T02:36:53.929Z,19.95
2022-08-23T02:37:53.948Z,19.98
2022-08-23T02:38:53.932Z,20.02
2022-08-23T02:39:54.004Z,19.89
2022-08-23T02:41:01.023Z,20.08
2022-08-23T02:41:56.066Z,19.97
2022-08-23T02:42:55.045Z,19.97
2022-08-23T02:43:55.037Z,19.98
2022-08-23T02:44:55.037Z,19.94
2022-08-23T02:45:54.997Z,19.95
2022-08-23T02:46:54.975Z,19.97
2022-08-23T02:47:54.960Z,19.95
2022-08-23T02:48:54.930Z,19.86
2022-08-23T02:49:54.948Z,19.97
2022-08-23T02:50:54.912Z,19.87
2022-08-23T02:51:54.906Z,19.86
2022-08-23T02:52:54.865Z,19.80
2022-08-23T02:53:54.854Z,19.78
2022-08-23T02:54:58.059Z,19.78
2022-08-23T02:55:54.818Z,19.86
2022-08-23T02:56:54.797Z,19.85
2022-08-23T02:57:54.786Z,19.92
2022-08-23T02:58:55.062Z,19.89
2022-08-23T02:59:54.794Z,19.79
2022-08-23T03:00:54.747Z,19.87
2022-08-23T03:01:54.758Z,19.79
2022-08-23T03:02:54.720Z,19.78
2022-08-23T03:03:54.692Z,19.82
2022-08-23T03:04:54.700Z,19.80
2022-08-23T03:05:54.671Z,19.80
2022-08-23T03:06:54.648Z,19.76
2022-08-23T03:07:54.623Z,19.76
2022-08-23T03:08:54.602Z,19.85
2022-08-23T03:09:54.624Z,19.75
2022-08-23T03:10:54.570Z,19.70
2022-08-23T03:11:54.558Z,19.71
2022-08-23T03:12:54.530Z,19.71
2022-08-23T03:13:54.514Z,19.80
2022-08-23T03:14:54.527Z,19.79
2022-08-23T03:15:54.490Z,19.82
2022-08-23T03:16:54.479Z,19.65
2022-08-23T03:17:54.455Z,19.62
2022-08-23T03:18:54.438Z,19.65
2022-08-23T03:19:54.448Z,19.60
2022-08-23T03:20:54.398Z,19.60
2022-08-23T03:21:54.379Z,19.70
2022-08-23T03:22:54.911Z,19.62
2022-08-23T03:23:54.346Z,19.65
2022-08-23T03:24:54.401Z,19.68
2022-08-23T03:25:54.325Z,19.71
2022-08-23T03:26:54.298Z,19.61
2022-08-23T03:27:54.293Z,19.65
2022-08-23T03:28:54.263Z,19.68
2022-08-23T03:29:54.288Z,19.68
2022-08-23T03:30:54.203Z,19.70
2022-08-23T03:31:54.151Z,19.72
2022-08-23T03:32:54.126Z,19.78
2022-08-23T03:33:54.116Z,19.82
2022-08-23T03:34:54.123Z,19.78
2022-08-23T03:35:54.117Z,19.75
2022-08-23T03:36:54.085Z,19.83
2022-08-23T03:37:55.303Z,19.86
2022-08-23T03:38:55.025Z,19.76
2022-08-23T03:39:54.143Z,19.86
2022-08-23T03:40:54.007Z,19.87
2022-08-23T03:41:54.006Z,19.90
2022-08-23T03:42:53.973Z,19.87
2022-08-23T03:43:53.944Z,19.85
2022-08-23T03:44:56.905Z,19.86
2022-08-23T03:45:54.922Z,19.90
2022-08-23T03:46:53.894Z,19.86
2022-08-23T03:47:53.891Z,19.82
2022-08-23T03:48:53.860Z,19.94
2022-08-23T03:49:53.844Z,19.82
2022-08-23T03:50:54.523Z,19.86
2022-08-23T03:51:53.815Z,19.83
2022-08-23T03:52:53.788Z,19.75
2022-08-23T03:53:53.785Z,19.79
2022-08-23T03:54:53.770Z,19.80
2022-08-23T03:55:53.783Z,19.68
2022-08-23T03:56:53.811Z,19.71
2022-08-23T03:57:53.743Z,19.65
2022-08-23T03:58:53.697Z,19.55
2022-08-23T03:59:53.683Z,19.47
2022-08-23T04:00:53.687Z,19.47
2022-08-23T04:01:53.698Z,19.39
2022-08-23T04:02:53.623Z,19.40
2022-08-23T04:03:53.733Z,19.25
2022-08-23T04:04:53.596Z,19.28
2022-08-23T04:05:53.608Z,19.39
2022-08-23T04:06:53.561Z,19.31
2022-08-23T04:07:53.530Z,19.30
2022-08-23T04:08:53.538Z,19.27
2022-08-23T04:09:55.278Z,19.17
2022-08-23T04:10:54.522Z,19.13
2022-08-23T04:11:53.478Z,19.21
2022-08-23T04:12:53.457Z,19.24
2022-08-23T04:13:53.436Z,19.25
2022-08-23T04:14:53.424Z,19.25
2022-08-23T04:15:53.434Z,19.27
2022-08-23T04:16:53.518Z,19.27
2022-08-23T04:17:53.393Z,19.25
2022-08-23T04:18:53.355Z,19.17
2022-08-23T04:19:53.353Z,19.24
2022-08-23T04:20:53.387Z,19.15
2022-08-23T04:21:53.323Z,19.15
2022-08-23T04:22:53.301Z,19.13
2022-08-23T04:23:53.278Z,19.15
2022-08-23T04:24:53.278Z,19.12
2022-08-23T04:25:53.294Z,19.06
2022-08-23T04:26:53.220Z,19.21
2022-08-23T04:27:53.216Z,19.07
2022-08-23T04:28:53.206Z,19.10
2022-08-23T04:29:53.194Z,19.07
2022-08-23T04:30:53.183Z,19.12
2022-08-23T04:31:53.142Z,19.12
2022-08-23T04:32:53.117Z,19.15
2022-08-23T04:33:53.100Z,19.02
2022-08-23T04:34:54.095Z,19.06
2022-08-23T04:35:53.105Z,18.99
2022-08-23T04:36:55.323Z,19.02
2022-08-23T04:37:53.049Z,19.02
2022-08-23T04:38:53.023Z,19.10
2022-08-23T04:39:53.940Z,19.07
2022-08-23T04:40:53.019Z,19.12
2022-08-23T04:41:52.976Z,19.13
2022-08-23T04:42:52.955Z,19.12
2022-08-23T04:43:52.957Z,19.07
2022-08-23T04:44:52.932Z,19.10
2022-08-23T04:45:52.949Z,19.10
2022-08-23T04:46:52.888Z,19.05
2022-08-23T04:47:52.875Z,19.05
2022-08-23T04:48:52.858Z,19.02
2022-08-23T04:49:52.848Z,18.91
2022-08-23T04:50:52.865Z,18.93
2022-08-23T04:51:54.164Z,18.99
2022-08-23T04:52:52.783Z,18.97
2022-08-23T04:53:52.776Z,19.01
2022-08-23T04:54:52.788Z,19.07
2022-08-23T04:55:52.743Z,18.94
2022-08-23T04:56:52.713Z,19.01
2022-08-23T04:57:52.711Z,18.94
2022-08-23T04:58:52.697Z,18.99
2022-08-23T04:59:52.739Z,18.99
2022-08-23T05:00:52.710Z,19.09
2022-08-23T05:01:52.633Z,18.99
2022-08-23T05:02:52.627Z,18.99
2022-08-23T05:03:52.619Z,18.93
2022-08-23T05:04:52.623Z,19.15
2022-08-23T05:05:52.563Z,19.06
2022-08-23T05:06:52.552Z,19.01
2022-08-23T05:07:52.528Z,18.99
2022-08-23T05:08:52.533Z,19.12
2022-08-23T05:09:52.499Z,19.13
2022-08-23T05:10:52.519Z,19.12
2022-08-23T05:11:52.468Z,19.15
2022-08-23T05:12:52.450Z,19.30
2022-08-23T05:13:52.428Z,19.25
2022-08-23T05:14:52.451Z,19.24
2022-08-23T05:15:52.442Z,19.24
2022-08-23T05:16:52.403Z,19.35
2022-08-23T05:17:52.374Z,19.32
2022-08-23T05:18:52.346Z,19.25
2022-08-23T05:19:52.373Z,19.23
2022-08-23T05:20:52.361Z,19.23
2022-08-23T05:21:56.793Z,19.21
2022-08-23T05:22:53.298Z,19.43
2022-08-23T05:23:54.781Z,19.39
2022-08-23T05:24:52.278Z,19.39
2022-08-23T05:25:53.472Z,19.50
2022-08-23T05:26:52.212Z,19.53
2022-08-23T05:27:52.204Z,19.53
2022-08-23T05:28:52.173Z,19.61
2022-08-23T05:29:52.203Z,19.58
2022-08-23T05:30:56.328Z,19.57
2022-08-23T05:31:53.138Z,19.62
2022-08-23T05:32:52.128Z,19.71
2022-08-23T05:33:52.093Z,19.67
2022-08-23T05:34:52.100Z,19.71
2022-08-23T05:35:53.065Z,19.68
2022-08-23T05:36:55.666Z,19.72
2022-08-23T05:37:52.022Z,19.71
2022-08-23T05:38:53.006Z,19.61
2022-08-23T05:39:52.098Z,19.78
2022-08-23T05:40:52.614Z,19.75
2022-08-23T05:41:51.978Z,19.80
2022-08-23T05:42:51.939Z,19.87
2022-08-23T05:43:51.935Z,19.97
2022-08-23T05:44:51.951Z,19.97
2022-08-23T05:45:51.897Z,20.17
2022-08-23T05:46:51.876Z,20.17
2022-08-23T05:47:51.866Z,20.22
2022-08-23T05:48:51.841Z,20.41
2022-08-23T05:49:51.850Z,20.51
2022-08-23T05:50:51.844Z,20.54
2022-08-23T05:51:51.971Z,20.46
2022-08-23T05:52:51.767Z,21.01
2022-08-23T05:53:51.861Z,21.70
2022-08-23T05:54:51.860Z,22.61
2022-08-23T05:55:51.764Z,23.37
2022-08-23T05:56:51.700Z,23.75
2022-08-23T05:57:51.684Z,23.79
2022-08-23T05:58:51.674Z,23.62
2022-08-23T05:59:51.661Z,24.02
2022-08-23T06:00:51.832Z,24.77
2022-08-23T06:01:51.615Z,25.39
2022-08-23T06:02:51.606Z,25.74
2022-08-23T06:03:51.581Z,25.97
2022-08-23T06:04:55.507Z,26.42
2022-08-23T06:05:53.579Z,26.88
2022-08-23T06:06:51.567Z,27.21
2022-08-23T06:07:51.520Z,27.09
2022-08-23T06:08:51.550Z,26.73
2022-08-23T06:09:51.497Z,26.78
2022-08-23T06:10:51.508Z,26.94
2022-08-23T06:11:51.471Z,27.23
2022-08-23T06:12:51.439Z,27.38
2022-08-23T06:13:51.454Z,27.87
2022-08-23T06:14:51.398Z,28.02
2022-08-23T06:15:51.450Z,28.32
2022-08-23T06:16:55.505Z,28.76
2022-08-23T06:17:52.373Z,29.25
2022-08-23T06:18:51.361Z,29.70
2022-08-23T06:19:51.360Z,29.81
2022-08-23T06:20:51.458Z,30.28
2022-08-23T06:22:23.683Z,30.44
2022-08-23T06:22:51.297Z,30.61
2022-08-23T06:23:51.304Z,30.59
2022-08-23T06:24:51.279Z,30.64
2022-08-23T06:25:51.234Z,30.70
2022-08-23T06:26:51.230Z,30.81
2022-08-23T06:27:51.217Z,30.70
2022-08-23T06:28:51.555Z,30.83
2022-08-23T06:29:51.219Z,30.93
2022-08-23T06:30:51.212Z,31.03
2022-08-23T06:31:51.200Z,31.18
2022-08-23T06:32:51.155Z,31.03
2022-08-23T06:33:51.249Z,31.30
2022-08-23T06:34:51.163Z,31.59
2022-08-23T06:35:52.102Z,31.75
2022-08-23T06:36:51.078Z,32.10
2022-08-23T06:37:51.113Z,32.41
2022-08-23T06:38:51.045Z,32.66
2022-08-23T06:39:51.075Z,32.83
2022-08-23T06:40:51.047Z,32.93
2022-08-23T06:41:51.023Z,32.99
2022-08-23T06:42:50.978Z,33.14
2022-08-23T06:43:50.975Z,33.17
2022-08-23T06:44:50.959Z,33.34
2022-08-23T06:45:53.812Z,33.52
2022-08-23T06:46:51.946Z,33.49
2022-08-23T06:47:50.898Z,33.79
2022-08-23T06:48:50.943Z,33.50
2022-08-23T06:49:57.409Z,33.41
2022-08-23T06:50:51.889Z,33.45
2022-08-23T06:51:50.852Z,33.45
2022-08-23T06:52:50.884Z,33.38
2022-08-23T06:53:50.808Z,33.59
2022-08-23T06:54:50.876Z,33.28
2022-08-23T06:55:50.836Z,32.50
2022-08-23T06:56:50.763Z,32.21
2022-08-23T06:57:50.763Z,32.35
2022-08-23T06:58:50.787Z,32.27
2022-08-23T06:59:50.729Z,32.53
2022-08-23T07:00:54.184Z,32.68
2022-08-23T07:01:51.814Z,32.22
2022-08-23T07:02:50.789Z,32.28
2022-08-23T07:03:50.659Z,32.06
2022-08-23T07:04:50.636Z,31.91
2022-08-23T07:05:50.667Z,32.09
2022-08-23T07:06:50.625Z,32.34
2022-08-23T07:07:50.591Z,32.66
2022-08-23T07:08:50.588Z,32.76
2022-08-23T07:09:50.561Z,32.88
2022-08-23T07:10:50.590Z,33.18
2022-08-23T07:11:50.533Z,33.49
2022-08-23T07:12:50.513Z,33.49
2022-08-23T07:13:50.495Z,33.74
2022-08-23T07:14:50.486Z,34.01
2022-08-23T07:15:50.543Z,33.74
2022-08-23T07:16:50.447Z,34.00
2022-08-23T07:17:50.463Z,34.12
2022-08-23T07:18:50.425Z,34.30
2022-08-23T07:19:50.415Z,34.12
2022-08-23T07:20:50.425Z,33.99
2022-08-23T07:21:50.396Z,33.79
2022-08-23T07:22:50.367Z,34.00
2022-08-23T07:23:50.340Z,34.11
2022-08-23T07:24:50.337Z,34.27
2022-08-23T07:25:50.359Z,34.24
2022-08-23T07:26:50.302Z,34.27
2022-08-23T07:27:50.301Z,34.38
2022-08-23T07:28:50.268Z,34.63
2022-08-23T07:29:50.268Z,34.60
2022-08-23T07:30:50.275Z,34.71
2022-08-23T07:31:50.283Z,34.81
2022-08-23T07:32:50.207Z,35.00
2022-08-23T07:33:50.200Z,35.34
2022-08-23T07:34:50.245Z,35.62
2022-08-23T07:35:50.261Z,35.27
2022-08-23T07:36:50.204Z,34.98
2022-08-23T07:37:50.149Z,35.17
2022-08-23T07:38:51.619Z,35.24
2022-08-23T07:39:51.133Z,35.40
2022-08-23T07:40:54.138Z,35.83
2022-08-23T07:41:50.093Z,36.11
2022-08-23T07:42:50.086Z,35.69
2022-08-23T07:43:50.075Z,34.63
2022-08-23T07:44:50.036Z,33.84
2022-08-23T07:45:51.695Z,33.50
2022-08-23T07:46:50.093Z,33.05
2022-08-23T07:47:50.732Z,32.80
2022-08-23T07:48:54.365Z,32.17
2022-08-23T07:49:50.985Z,31.45
2022-08-23T07:50:57.885Z,31.01
2022-08-23T07:51:50.974Z,30.21
2022-08-23T07:52:49.943Z,29.45
2022-08-23T07:53:49.929Z,29.25
2022-08-23T07:54:49.903Z,29.29
2022-08-23T07:55:49.937Z,29.32
2022-08-23T07:56:49.889Z,29.32
2022-08-23T07:57:49.863Z,29.20
2022-08-23T07:58:49.869Z,29.42
2022-08-23T07:59:49.832Z,29.89
2022-08-23T08:00:49.867Z,31.31
2022-08-23T08:01:49.852Z,32.25
2022-08-23T08:02:49.853Z,33.02
2022-08-23T08:03:49.785Z,33.53
2022-08-23T08:04:49.758Z,34.19
2022-08-23T08:05:49.774Z,34.76
2022-08-23T08:07:04.834Z,34.88
2022-08-23T08:07:51.722Z,35.12
2022-08-23T08:08:49.709Z,35.74
2022-08-23T08:09:49.684Z,36.19
2022-08-23T08:10:49.704Z,36.15
2022-08-23T08:11:49.654Z,35.99
2022-08-23T08:12:49.653Z,36.21
2022-08-23T08:13:49.652Z,36.30
2022-08-23T08:14:49.631Z,36.38
2022-08-23T08:15:49.679Z,36.23
2022-08-23T08:16:49.582Z,36.25
2022-08-23T08:17:49.584Z,36.59
2022-08-23T08:18:49.566Z,36.56
2022-08-23T08:19:49.547Z,36.41
2022-08-23T08:20:49.560Z,36.53
2022-08-23T08:21:49.514Z,36.62
2022-08-23T08:22:51.156Z,36.77
2022-08-23T08:23:51.487Z,36.82
2022-08-23T08:24:49.476Z,36.78
2022-08-23T08:25:49.526Z,36.68
2022-08-23T08:26:49.452Z,36.68
2022-08-23T08:27:49.472Z,35.98
2022-08-23T08:28:49.429Z,36.18
2022-08-23T08:29:49.421Z,36.37
2022-08-23T08:30:49.431Z,36.28
2022-08-23T08:31:53.616Z,36.40
2022-08-23T08:32:50.396Z,36.77
2022-08-23T08:33:49.352Z,36.87
2022-08-23T08:34:49.344Z,37.05
2022-08-23T08:35:58.185Z,37.21
2022-08-23T08:36:50.343Z,37.54
2022-08-23T08:37:49.311Z,37.27
2022-08-23T08:38:51.765Z,36.99
2022-08-23T08:39:49.321Z,36.74
2022-08-23T08:40:49.305Z,36.69
2022-08-23T08:41:49.260Z,36.60
2022-08-23T08:42:50.240Z,36.41
2022-08-23T08:43:49.226Z,36.37
2022-08-23T08:44:49.210Z,36.40
2022-08-23T08:45:58.862Z,36.46
2022-08-23T08:46:50.261Z,36.60
2022-08-23T08:47:49.178Z,36.56
2022-08-23T08:48:49.174Z,36.55
2022-08-23T08:49:49.152Z,36.27
2022-08-23T08:50:49.169Z,36.33
2022-08-23T08:51:49.142Z,36.82
2022-08-23T08:52:49.105Z,37.21
2022-08-23T08:53:49.101Z,36.52
2022-08-23T08:54:49.085Z,36.44
2022-08-23T08:55:49.122Z,36.62
2022-08-23T08:56:49.083Z,36.99
2022-08-23T08:57:49.077Z,37.15
2022-08-23T08:58:49.037Z,37.34
2022-08-23T08:59:49.027Z,37.43
2022-08-23T09:00:52.664Z,37.81
2022-08-23T09:01:50.030Z,37.50
2022-08-23T09:02:50.350Z,37.73
2022-08-23T09:03:48.977Z,38.00
2022-08-23T09:04:48.949Z,38.37
2022-08-23T09:05:48.984Z,38.58
2022-08-23T09:06:48.938Z,38.49
2022-08-23T09:07:48.913Z,38.36
2022-08-23T09:08:48.902Z,38.19
2022-08-23T09:09:48.889Z,38.19
2022-08-23T09:10:48.904Z,37.99
2022-08-23T09:11:48.856Z,37.62
2022-08-23T09:12:48.840Z,37.43
2022-08-23T09:13:48.842Z,37.25
2022-08-23T09:14:48.839Z,37.53
2022-08-23T09:15:48.879Z,37.34
2022-08-23T09:16:48.803Z,37.50
2022-08-23T09:17:48.771Z,37.99
2022-08-23T09:18:48.847Z,38.06
2022-08-23T09:19:48.742Z,37.99
2022-08-23T09:20:48.779Z,37.70
2022-08-23T09:21:48.737Z,37.58
2022-08-23T09:22:48.699Z,37.15
2022-08-23T09:24:00.507Z,37.23
2022-08-23T09:24:49.685Z,37.28
2022-08-23T09:25:48.701Z,37.04
2022-08-23T09:26:48.678Z,37.06
2022-08-23T09:27:48.637Z,37.38
2022-08-23T09:28:48.645Z,37.43
2022-08-23T09:29:48.649Z,37.46
2022-08-23T09:30:48.706Z,37.70
2022-08-23T09:31:48.684Z,38.06
2022-08-23T09:32:48.574Z,38.62
2022-08-23T09:33:48.569Z,38.78
2022-08-23T09:34:48.558Z,39.12
2022-08-23T09:35:48.580Z,39.16
2022-08-23T09:36:48.548Z,38.50
2022-08-23T09:37:48.517Z,38.26
2022-08-23T09:38:48.507Z,38.53
2022-08-23T09:39:48.570Z,38.24
2022-08-23T09:40:48.517Z,37.70
2022-08-23T09:41:48.466Z,37.27
2022-08-23T09:42:48.449Z,37.20
2022-08-23T09:43:48.435Z,36.91
2022-08-23T09:44:48.457Z,37.16
2022-08-23T09:45:48.415Z,37.45
2022-08-23T09:46:48.401Z,37.69
2022-08-23T09:47:48.375Z,37.47
2022-08-23T09:48:48.369Z,37.09
2022-08-23T09:49:48.353Z,36.65
2022-08-23T09:50:48.377Z,37.42
2022-08-23T09:51:48.341Z,37.60
2022-08-23T09:52:48.323Z,37.99
2022-08-23T09:53:48.331Z,38.19
2022-08-23T09:54:48.280Z,38.26
2022-08-23T09:55:48.314Z,38.43
2022-08-23T09:56:48.261Z,38.59
2022-08-23T09:57:48.270Z,39.02
2022-08-23T09:58:48.233Z,38.92
2022-08-23T09:59:48.252Z,38.84
2022-08-23T10:00:48.226Z,38.31
2022-08-23T10:01:48.239Z,37.85
2022-08-23T10:02:48.174Z,37.05
2022-08-23T10:03:48.212Z,37.35
2022-08-23T10:04:48.214Z,37.50
2022-08-23T10:05:48.160Z,37.47
2022-08-23T10:06:48.179Z,37.62
2022-08-23T10:07:48.108Z,37.53
2022-08-23T10:08:48.095Z,37.33
2022-08-23T10:09:48.085Z,37.46
2022-08-23T10:10:50.918Z,37.59
2022-08-23T10:11:48.055Z,37.66
2022-08-23T10:12:48.043Z,37.80
2022-08-23T10:13:48.057Z,37.95
2022-08-23T10:14:48.009Z,38.49
2022-08-23T10:15:48.097Z,38.45
2022-08-23T10:16:47.981Z,38.44
2022-08-23T10:17:47.962Z,38.30
2022-08-23T10:18:47.958Z,37.91
2022-08-23T10:19:47.988Z,37.73
2022-08-23T10:20:47.963Z,37.56
2022-08-23T10:21:47.907Z,37.49
2022-08-23T10:22:47.892Z,37.60
2022-08-23T10:23:47.953Z,37.62
2022-08-23T10:24:47.884Z,37.70
2022-08-23T10:25:47.910Z,37.63
2022-08-23T10:26:47.845Z,37.60
2022-08-23T10:27:47.847Z,37.96
2022-08-23T10:28:47.827Z,38.03
2022-08-23T10:29:47.801Z,38.00
2022-08-23T10:30:47.836Z,38.04
2022-08-23T10:31:47.775Z,38.31
2022-08-23T10:32:47.755Z,38.33
2022-08-23T10:33:47.791Z,38.33
2022-08-23T10:34:50.603Z,38.26
2022-08-23T10:35:48.763Z,38.36
2022-08-23T10:36:47.704Z,38.44
2022-08-23T10:37:47.687Z,38.52
2022-08-23T10:38:47.678Z,38.41
2022-08-23T10:39:47.717Z,38.00
2022-08-23T10:40:47.688Z,37.90
2022-08-23T10:41:47.649Z,37.99
2022-08-23T10:42:47.620Z,37.88
2022-08-23T10:43:47.628Z,37.53
2022-08-23T10:44:47.587Z,37.49
2022-08-23T10:45:47.619Z,37.49
2022-08-23T10:46:47.608Z,37.60
2022-08-23T10:47:47.548Z,37.49
2022-08-23T10:48:47.538Z,36.97
2022-08-23T10:49:47.518Z,36.18
2022-08-23T10:50:55.801Z,35.62
2022-08-23T10:51:48.496Z,35.43
2022-08-23T10:52:47.493Z,35.28
2022-08-23T10:53:47.531Z,34.67
2022-08-23T10:54:47.451Z,34.38
2022-08-23T10:55:47.464Z,34.42
2022-08-23T10:56:48.816Z,34.30
2022-08-23T10:57:47.417Z,34.00
2022-08-23T10:58:47.659Z,33.90
2022-08-23T10:59:47.380Z,33.79
2022-08-23T11:00:47.399Z,33.71
2022-08-23T11:01:47.488Z,33.71
2022-08-23T11:02:47.372Z,33.74
2022-08-23T11:03:47.378Z,33.44
2022-08-23T11:04:47.333Z,33.09
2022-08-23T11:05:47.329Z,32.84
2022-08-23T11:06:47.294Z,32.71
2022-08-23T11:07:47.280Z,32.83
2022-08-23T11:08:48.101Z,32.73
2022-08-23T11:09:48.798Z,32.61
2022-08-23T11:10:55.842Z,32.31
2022-08-23T11:11:48.233Z,32.09
2022-08-23T11:12:47.225Z,31.87
2022-08-23T11:13:47.198Z,31.75
2022-08-23T11:14:47.156Z,31.52
2022-08-23T11:15:47.268Z,31.34
2022-08-23T11:16:47.135Z,31.23
2022-08-23T11:17:47.109Z,31.28
2022-08-23T11:18:47.112Z,31.00
2022-08-23T11:19:47.072Z,30.67
2022-08-23T11:20:47.117Z,30.45
2022-08-23T11:21:47.070Z,30.42
2022-08-23T11:22:47.028Z,30.25
2022-08-23T11:23:47.035Z,30.23
2022-08-23T11:24:46.996Z,30.34
2022-08-23T11:25:47.071Z,30.44
2022-08-23T11:26:46.969Z,30.21
2022-08-23T11:27:46.967Z,30.08
2022-08-23T11:28:46.947Z,30.11
2022-08-23T11:29:46.926Z,30.19
2022-08-23T11:30:46.984Z,30.11
2022-08-23T11:31:46.895Z,29.95
2022-08-23T11:32:46.872Z,30.03
2022-08-23T11:33:46.855Z,30.03
2022-08-23T11:34:46.879Z,30.21
2022-08-23T11:35:46.858Z,30.29
2022-08-23T11:36:46.821Z,30.42
2022-08-23T11:37:46.790Z,30.40
2022-08-23T11:38:46.807Z,30.37
2022-08-23T11:39:46.816Z,30.11
2022-08-23T11:40:46.748Z,30.03
2022-08-23T11:41:46.755Z,30.03
2022-08-23T11:42:46.729Z,30.16
2022-08-23T11:43:46.794Z,30.19
2022-08-23T11:44:46.784Z,30.11
2022-08-23T11:45:46.783Z,30.25
2022-08-23T11:46:46.695Z,30.32
2022-08-23T11:47:46.650Z,30.37
2022-08-23T11:48:46.706Z,30.40
2022-08-23T11:49:48.634Z,30.38
2022-08-23T11:50:46.637Z,30.40
2022-08-23T11:51:46.594Z,30.48
2022-08-23T11:52:46.590Z,30.21
2022-08-23T11:53:46.577Z,30.11
2022-08-23T11:54:46.666Z,30.21
2022-08-23T11:55:46.541Z,30.18
2022-08-23T11:56:46.614Z,30.25
2022-08-23T11:57:46.503Z,30.36
2022-08-23T11:58:46.480Z,30.44
2022-08-23T11:59:46.487Z,30.54
2022-08-23T12:00:46.443Z,30.32
2022-08-23T12:01:47.309Z,30.04
2022-08-23T12:02:46.570Z,29.76
2022-08-23T12:03:46.661Z,29.69
2022-08-23T12:04:47.362Z,29.63
2022-08-23T12:05:46.378Z,29.51
2022-08-23T12:06:51.019Z,29.58
2022-08-23T12:07:47.391Z,29.48
2022-08-23T12:08:46.335Z,29.57
2022-08-23T12:09:46.340Z,29.52
2022-08-23T12:10:46.300Z,29.49
2022-08-23T12:11:46.279Z,29.58
2022-08-23T12:12:47.430Z,29.52
2022-08-23T12:13:47.331Z,29.55
2022-08-23T12:14:46.260Z,29.69
2022-08-23T12:15:46.250Z,29.73
2022-08-23T12:16:50.017Z,29.89
2022-08-23T12:17:46.192Z,29.82
2022-08-23T12:18:46.215Z,29.73
2022-08-23T12:19:47.184Z,29.74
2022-08-23T12:20:48.538Z,29.64
2022-08-23T12:21:46.121Z,29.64
2022-08-23T12:22:46.125Z,29.67
2022-08-23T12:23:48.012Z,29.81
2022-08-23T12:24:47.152Z,29.76
2022-08-23T12:25:46.086Z,29.67
2022-08-23T12:26:46.040Z,29.63
2022-08-23T12:27:46.062Z,29.58
2022-08-23T12:28:46.009Z,29.54
2022-08-23T12:29:46.030Z,29.48
2022-08-23T12:30:46.077Z,29.49
2022-08-23T12:31:46.073Z,29.45
2022-08-23T12:32:45.945Z,29.41
2022-08-23T12:33:45.975Z,29.33
2022-08-23T12:34:47.267Z,29.35
2022-08-23T12:35:45.923Z,29.29
2022-08-23T12:36:45.898Z,29.30
2022-08-23T12:37:45.886Z,29.37
2022-08-23T12:38:45.859Z,29.44
2022-08-23T12:39:45.850Z,29.55
2022-08-23T12:40:45.933Z,29.58
2022-08-23T12:41:45.831Z,29.54
2022-08-23T12:42:45.792Z,29.60
2022-08-23T12:43:45.779Z,29.62
2022-08-23T12:44:45.763Z,29.58
2022-08-23T12:45:45.778Z,29.70
2022-08-23T12:46:45.822Z,29.74
2022-08-23T12:47:45.732Z,29.74
2022-08-23T12:48:45.690Z,29.81
2022-08-23T12:49:45.687Z,29.76
2022-08-23T12:50:45.700Z,29.74
2022-08-23T12:51:45.659Z,29.71
2022-08-23T12:52:45.625Z,29.69
2022-08-23T12:53:45.868Z,29.58
2022-08-23T12:54:45.607Z,29.55
2022-08-23T12:55:45.622Z,29.36